sensor_id;sensor_type;location;lat;lon;timestamp;pressure;altitude;pressure_sealevel;temperature;humidity
59650;BME280;46162;57.568;25.814;2023-06-14T00:01:07;101387.00;;;7.43;100.00
59650;BME280;46162;57.568;25.814;2023-06-14T00:03:36;101390.22;;;7.84;100.00
59650;BME280;46162;57.568;25.814;2023-06-14T00:06:06;101381.03;;;8.22;100.00
59650;BME280;46162;57.568;25.814;2023-06-14T00:08:36;101389.22;;;8.20;100.00
59650;BME280;46162;57.568;25.814;2023-06-14T00:11:04;101386.38;;;7.99;100.00
59650;BME280;46162;57.568;25.814;2023-06-14T00:13:33;101393.53;;;7.87;100.00
59650;BME280;46162;57.568;25.814;2023-06-14T00:16:01;101392.38;;;7.67;100.00
59650;BME280;46162;57.568;25.814;2023-06-14T00:18:31;101388.41;;;7.84;100.00
59650;BME280;46162;57.568;25.814;2023-06-14T00:20:59;101386.78;;;8.28;100.00
59650;BME280;46162;57.568;25.814;2023-06-14T00:23:29;101388.31;;;8.55;100.00
59650;BME280;46162;57.568;25.814;2023-06-14T00:25:59;101386.91;;;8.38;100.00
59650;BME280;46162;57.568;25.814;2023-06-14T00:28:28;101392.09;;;8.06;100.00
59650;BME280;46162;57.568;25.814;2023-06-14T00:30:56;101391.63;;;8.01;100.00
59650;BME280;46162;57.568;25.814;2023-06-14T00:33:25;101387.22;;;8.11;100.00
59650;BME280;46162;57.568;25.814;2023-06-14T00:35:53;101390.06;;;8.09;100.00
59650;BME280;46162;57.568;25.814;2023-06-14T00:38:22;101390.94;;;8.21;100.00
59650;BME280;46162;57.568;25.814;2023-06-14T00:40:51;101387.41;;;7.85;100.00
59650;BME280;46162;57.568;25.814;2023-06-14T00:43:21;101386.88;;;8.04;100.00
59650;BME280;46162;57.568;25.814;2023-06-14T00:45:49;101391.56;;;7.54;100.00
59650;BME280;46162;57.568;25.814;2023-06-14T00:48:18;101382.59;;;7.42;100.00
59650;BME280;46162;57.568;25.814;2023-06-14T00:50:49;101391.78;;;7.27;100.00
59650;BME280;46162;57.568;25.814;2023-06-14T00:53:20;101389.19;;;7.73;100.00
59650;BME280;46162;57.568;25.814;2023-06-14T00:55:50;101393.94;;;7.94;100.00
59650;BME280;46162;57.568;25.814;2023-06-14T00:58:21;101390.81;;;8.23;100.00
59650;BME280;46162;57.568;25.814;2023-06-14T01:00:51;101402.09;;;7.33;100.00
59650;BME280;46162;57.568;25.814;2023-06-14T01:03:19;101402.91;;;7.09;100.00
59650;BME280;46162;57.568;25.814;2023-06-14T01:05:51;101397.19;;;6.90;100.00
59650;BME280;46162;57.568;25.814;2023-06-14T01:08:25;101402.88;;;6.85;100.00
59650;BME280;46162;57.568;25.814;2023-06-14T01:11:02;101390.06;;;7.26;100.00
59650;BME280;46162;57.568;25.814;2023-06-14T01:13:35;101392.31;;;7.32;100.00
59650;BME280;46162;57.568;25.814;2023-06-14T01:16:05;101390.72;;;7.29;100.00
59650;BME280;46162;57.568;25.814;2023-06-14T01:18:35;101397.50;;;7.22;100.00
59650;BME280;46162;57.568;25.814;2023-06-14T01:21:04;101388.88;;;7.54;100.00
59650;BME280;46162;57.568;25.814;2023-06-14T01:23:35;101399.94;;;7.01;100.00
59650;BME280;46162;57.568;25.814;2023-06-14T01:26:03;101395.22;;;7.05;100.00
59650;BME280;46162;57.568;25.814;2023-06-14T01:28:33;101398.06;;;7.39;100.00
59650;BME280;46162;57.568;25.814;2023-06-14T01:31:03;101397.16;;;7.51;100.00
59650;BME280;46162;57.568;25.814;2023-06-14T01:33:33;101394.72;;;7.72;100.00
59650;BME280;46162;57.568;25.814;2023-06-14T01:36:05;101405.78;;;7.91;100.00
59650;BME280;46162;57.568;25.814;2023-06-14T01:38:37;101398.41;;;6.97;100.00
59650;BME280;46162;57.568;25.814;2023-06-14T01:41:06;101397.84;;;6.68;100.00
59650;BME280;46162;57.568;25.814;2023-06-14T01:43:34;101417.06;;;6.49;100.00
59650;BME280;46162;57.568;25.814;2023-06-14T01:46:05;101409.88;;;6.37;100.00
59650;BME280;46162;57.568;25.814;2023-06-14T01:48:35;101410.31;;;6.43;100.00
59650;BME280;46162;57.568;25.814;2023-06-14T01:51:03;101416.53;;;6.44;100.00
59650;BME280;46162;57.568;25.814;2023-06-14T01:53:32;101415.38;;;6.48;100.00
59650;BME280;46162;57.568;25.814;2023-06-14T01:56:02;101422.66;;;6.46;100.00
59650;BME280;46162;57.568;25.814;2023-06-14T01:58:31;101421.69;;;6.34;100.00
59650;BME280;46162;57.568;25.814;2023-06-14T02:01:00;101425.13;;;6.49;100.00
59650;BME280;46162;57.568;25.814;2023-06-14T02:03:29;101417.19;;;6.60;100.00
59650;BME280;46162;57.568;25.814;2023-06-14T02:05:58;101412.94;;;6.82;100.00
59650;BME280;46162;57.568;25.814;2023-06-14T02:08:27;101421.47;;;6.76;100.00
59650;BME280;46162;57.568;25.814;2023-06-14T02:10:55;101428.53;;;6.64;100.00
59650;BME280;46162;57.568;25.814;2023-06-14T02:13:25;101426.50;;;6.67;100.00
59650;BME280;46162;57.568;25.814;2023-06-14T02:15:54;101428.72;;;6.86;100.00
59650;BME280;46162;57.568;25.814;2023-06-14T02:18:25;101429.72;;;6.85;100.00
59650;BME280;46162;57.568;25.814;2023-06-14T02:20:56;101423.03;;;6.91;100.00
59650;BME280;46162;57.568;25.814;2023-06-14T02:23:24;101427.84;;;6.99;100.00
59650;BME280;46162;57.568;25.814;2023-06-14T02:25:53;101425.78;;;7.15;100.00
59650;BME280;46162;57.568;25.814;2023-06-14T02:28:21;101429.03;;;7.07;100.00
59650;BME280;46162;57.568;25.814;2023-06-14T02:30:51;101423.19;;;7.14;100.00
59650;BME280;46162;57.568;25.814;2023-06-14T02:33:22;101420.13;;;7.31;100.00
59650;BME280;46162;57.568;25.814;2023-06-14T02:35:52;101424.53;;;7.56;100.00
59650;BME280;46162;57.568;25.814;2023-06-14T02:38:20;101422.28;;;7.63;100.00
59650;BME280;46162;57.568;25.814;2023-06-14T02:40:49;101423.47;;;7.83;100.00
59650;BME280;46162;57.568;25.814;2023-06-14T02:43:18;101420.81;;;7.94;100.00
59650;BME280;46162;57.568;25.814;2023-06-14T02:45:47;101414.88;;;8.13;100.00
59650;BME280;46162;57.568;25.814;2023-06-14T02:48:17;101416.44;;;8.39;100.00
59650;BME280;46162;57.568;25.814;2023-06-14T02:50:45;101418.19;;;8.63;100.00
59650;BME280;46162;57.568;25.814;2023-06-14T02:53:14;101419.78;;;8.66;100.00
59650;BME280;46162;57.568;25.814;2023-06-14T02:55:42;101419.91;;;8.75;100.00
59650;BME280;46162;57.568;25.814;2023-06-14T02:58:11;101418.16;;;8.97;100.00
59650;BME280;46162;57.568;25.814;2023-06-14T03:00:40;101425.03;;;9.01;100.00
59650;BME280;46162;57.568;25.814;2023-06-14T03:03:09;101426.72;;;9.13;100.00
59650;BME280;46162;57.568;25.814;2023-06-14T03:05:50;101426.97;;;8.99;100.00
59650;BME280;46162;57.568;25.814;2023-06-14T03:08:22;101433.13;;;8.78;100.00
59650;BME280;46162;57.568;25.814;2023-06-14T03:10:56;101437.75;;;9.10;100.00
59650;BME280;46162;57.568;25.814;2023-06-14T03:13:26;101439.56;;;9.32;100.00
59650;BME280;46162;57.568;25.814;2023-06-14T03:15:54;101438.25;;;9.04;100.00
59650;BME280;46162;57.568;25.814;2023-06-14T03:18:24;101445.34;;;9.28;100.00
59650;BME280;46162;57.568;25.814;2023-06-14T03:20:57;101444.72;;;9.35;100.00
59650;BME280;46162;57.568;25.814;2023-06-14T03:23:27;101448.31;;;9.57;100.00
59650;BME280;46162;57.568;25.814;2023-06-14T03:25:56;101444.00;;;9.65;100.00
59650;BME280;46162;57.568;25.814;2023-06-14T03:28:25;101437.25;;;9.71;100.00
59650;BME280;46162;57.568;25.814;2023-06-14T03:30:55;101447.94;;;9.94;100.00
59650;BME280;46162;57.568;25.814;2023-06-14T03:33:25;101438.44;;;10.10;100.00
59650;BME280;46162;57.568;25.814;2023-06-14T03:35:55;101444.56;;;10.33;100.00
59650;BME280;46162;57.568;25.814;2023-06-14T03:38:25;101449.25;;;10.52;100.00
59650;BME280;46162;57.568;25.814;2023-06-14T03:40:54;101448.59;;;10.60;100.00
59650;BME280;46162;57.568;25.814;2023-06-14T03:43:23;101448.47;;;10.62;100.00
59650;BME280;46162;57.568;25.814;2023-06-14T03:45:53;101447.56;;;10.82;100.00
59650;BME280;46162;57.568;25.814;2023-06-14T03:48:23;101453.63;;;10.95;100.00
59650;BME280;46162;57.568;25.814;2023-06-14T03:50:52;101456.94;;;11.09;100.00
59650;BME280;46162;57.568;25.814;2023-06-14T03:53:28;101441.63;;;11.29;100.00
59650;BME280;46162;57.568;25.814;2023-06-14T03:55:57;101444.81;;;11.44;100.00
59650;BME280;46162;57.568;25.814;2023-06-14T03:58:36;101450.63;;;11.49;100.00
59650;BME280;46162;57.568;25.814;2023-06-14T04:01:05;101454.38;;;11.67;100.00
59650;BME280;46162;57.568;25.814;2023-06-14T04:03:34;101446.56;;;11.83;100.00
59650;BME280;46162;57.568;25.814;2023-06-14T04:06:04;101452.59;;;11.97;100.00
59650;BME280;46162;57.568;25.814;2023-06-14T04:08:34;101440.34;;;12.02;100.00
59650;BME280;46162;57.568;25.814;2023-06-14T04:11:02;101450.56;;;12.18;100.00
59650;BME280;46162;57.568;25.814;2023-06-14T04:13:31;101448.25;;;12.43;100.00
59650;BME280;46162;57.568;25.814;2023-06-14T04:16:04;101453.63;;;12.62;100.00
59650;BME280;46162;57.568;25.814;2023-06-14T04:18:35;101449.63;;;12.76;100.00
59650;BME280;46162;57.568;25.814;2023-06-14T04:21:03;101441.16;;;12.89;100.00
59650;BME280;46162;57.568;25.814;2023-06-14T04:23:35;101447.53;;;12.98;100.00
59650;BME280;46162;57.568;25.814;2023-06-14T04:26:05;101448.91;;;13.11;100.00
59650;BME280;46162;57.568;25.814;2023-06-14T04:28:34;101446.84;;;13.23;100.00
59650;BME280;46162;57.568;25.814;2023-06-14T04:31:04;101446.03;;;13.50;100.00
59650;BME280;46162;57.568;25.814;2023-06-14T04:33:35;101445.31;;;13.66;100.00
59650;BME280;46162;57.568;25.814;2023-06-14T04:36:14;101440.53;;;13.78;100.00
59650;BME280;46162;57.568;25.814;2023-06-14T04:38:48;101444.41;;;13.93;100.00
59650;BME280;46162;57.568;25.814;2023-06-14T04:41:24;101446.72;;;14.06;100.00
59650;BME280;46162;57.568;25.814;2023-06-14T04:43:56;101447.03;;;14.21;100.00
59650;BME280;46162;57.568;25.814;2023-06-14T04:46:25;101449.41;;;14.24;100.00
59650;BME280;46162;57.568;25.814;2023-06-14T04:48:55;101450.00;;;14.54;100.00
59650;BME280;46162;57.568;25.814;2023-06-14T04:51:24;101452.59;;;14.81;100.00
59650;BME280;46162;57.568;25.814;2023-06-14T04:53:58;101459.84;;;15.07;100.00
59650;BME280;46162;57.568;25.814;2023-06-14T04:56:28;101452.31;;;14.93;100.00
59650;BME280;46162;57.568;25.814;2023-06-14T04:58:57;101451.44;;;15.18;100.00
59650;BME280;46162;57.568;25.814;2023-06-14T05:01:26;101443.63;;;15.23;100.00
59650;BME280;46162;57.568;25.814;2023-06-14T05:03:55;101445.47;;;15.65;100.00
59650;BME280;46162;57.568;25.814;2023-06-14T05:06:24;101447.53;;;15.80;100.00
59650;BME280;46162;57.568;25.814;2023-06-14T05:08:53;101445.34;;;16.00;100.00
59650;BME280;46162;57.568;25.814;2023-06-14T05:11:24;101441.78;;;15.91;100.00
59650;BME280;46162;57.568;25.814;2023-06-14T05:13:54;101441.13;;;16.05;100.00
59650;BME280;46162;57.568;25.814;2023-06-14T05:16:23;101438.38;;;15.89;100.00
59650;BME280;46162;57.568;25.814;2023-06-14T05:18:52;101438.22;;;15.90;100.00
59650;BME280;46162;57.568;25.814;2023-06-14T05:21:22;101437.72;;;15.95;100.00
59650;BME280;46162;57.568;25.814;2023-06-14T05:23:50;101441.63;;;16.17;100.00
59650;BME280;46162;57.568;25.814;2023-06-14T05:26:24;101439.41;;;16.37;100.00
59650;BME280;46162;57.568;25.814;2023-06-14T05:28:55;101448.09;;;16.41;100.00
59650;BME280;46162;57.568;25.814;2023-06-14T05:31:24;101442.25;;;16.76;100.00
59650;BME280;46162;57.568;25.814;2023-06-14T05:33:53;101436.59;;;16.94;100.00
59650;BME280;46162;57.568;25.814;2023-06-14T05:36:22;101441.00;;;17.04;100.00
59650;BME280;46162;57.568;25.814;2023-06-14T05:38:51;101442.66;;;17.21;100.00
59650;BME280;46162;57.568;25.814;2023-06-14T05:41:26;101439.66;;;17.39;100.00
59650;BME280;46162;57.568;25.814;2023-06-14T05:43:56;101436.97;;;17.62;100.00
59650;BME280;46162;57.568;25.814;2023-06-14T05:46:24;101429.38;;;17.72;100.00
59650;BME280;46162;57.568;25.814;2023-06-14T05:48:54;101431.44;;;17.70;100.00
59650;BME280;46162;57.568;25.814;2023-06-14T05:51:23;101432.75;;;17.82;100.00
59650;BME280;46162;57.568;25.814;2023-06-14T05:53:52;101436.22;;;18.22;100.00
59650;BME280;46162;57.568;25.814;2023-06-14T05:56:21;101437.06;;;18.23;100.00
59650;BME280;46162;57.568;25.814;2023-06-14T05:58:51;101435.78;;;18.34;100.00
59650;BME280;46162;57.568;25.814;2023-06-14T06:01:20;101429.00;;;18.82;100.00
59650;BME280;46162;57.568;25.814;2023-06-14T06:03:49;101438.03;;;18.83;100.00
59650;BME280;46162;57.568;25.814;2023-06-14T06:06:20;101442.84;;;18.81;100.00
59650;BME280;46162;57.568;25.814;2023-06-14T06:08:49;101448.72;;;18.78;100.00
59650;BME280;46162;57.568;25.814;2023-06-14T06:11:17;101437.09;;;19.05;96.56
59650;BME280;46162;57.568;25.814;2023-06-14T06:13:47;101442.28;;;19.30;91.67
59650;BME280;46162;57.568;25.814;2023-06-14T06:16:17;101434.88;;;19.45;100.00
59650;BME280;46162;57.568;25.814;2023-06-14T06:18:45;101433.94;;;19.38;100.00
59650;BME280;46162;57.568;25.814;2023-06-14T06:21:14;101434.00;;;19.60;99.49
59650;BME280;46162;57.568;25.814;2023-06-14T06:23:43;101437.34;;;19.40;90.26
59650;BME280;46162;57.568;25.814;2023-06-14T06:26:11;101435.09;;;19.80;88.34
59650;BME280;46162;57.568;25.814;2023-06-14T06:28:40;101432.34;;;19.65;89.28
59650;BME280;46162;57.568;25.814;2023-06-14T06:31:09;101436.25;;;19.92;80.22
59650;BME280;46162;57.568;25.814;2023-06-14T06:33:39;101437.31;;;20.13;76.17
59650;BME280;46162;57.568;25.814;2023-06-14T06:36:08;101438.50;;;20.25;nan
59650;BME280;46162;57.568;25.814;2023-06-14T06:38:38;101441.41;;;20.24;69.61
59650;BME280;46162;57.568;25.814;2023-06-14T06:41:08;101438.41;;;20.40;75.53
59650;BME280;46162;57.568;25.814;2023-06-14T06:43:39;101438.50;;;20.53;65.41
59650;BME280;46162;57.568;25.814;2023-06-14T06:46:09;101442.78;;;20.56;73.87
59650;BME280;46162;57.568;25.814;2023-06-14T06:48:39;101436.41;;;20.83;68.78
59650;BME280;46162;57.568;25.814;2023-06-14T06:51:08;101439.09;;;20.77;74.86
59650;BME280;46162;57.568;25.814;2023-06-14T06:53:37;101443.09;;;21.02;68.69
59650;BME280;46162;57.568;25.814;2023-06-14T06:56:12;101437.22;;;21.12;71.45
59650;BME280;46162;57.568;25.814;2023-06-14T06:58:40;101447.69;;;21.37;68.29
59650;BME280;46162;57.568;25.814;2023-06-14T07:01:09;101443.72;;;21.39;61.76
59650;BME280;46162;57.568;25.814;2023-06-14T07:03:40;101436.56;;;21.45;61.53
59650;BME280;46162;57.568;25.814;2023-06-14T07:06:08;101446.94;;;21.50;58.93
59650;BME280;46162;57.568;25.814;2023-06-14T07:08:38;101438.06;;;21.61;55.75
59650;BME280;46162;57.568;25.814;2023-06-14T07:11:07;101438.66;;;21.43;64.31
59650;BME280;46162;57.568;25.814;2023-06-14T07:13:35;101433.88;;;21.23;68.72
59650;BME280;46162;57.568;25.814;2023-06-14T07:16:04;101431.75;;;21.19;67.93
59650;BME280;46162;57.568;25.814;2023-06-14T07:18:33;101436.81;;;21.15;69.59
59650;BME280;46162;57.568;25.814;2023-06-14T07:21:03;101441.41;;;21.08;63.82
59650;BME280;46162;57.568;25.814;2023-06-14T07:23:32;101434.38;;;20.92;62.54
59650;BME280;46162;57.568;25.814;2023-06-14T07:28:30;101432.63;;;20.85;75.60
59650;BME280;46162;57.568;25.814;2023-06-14T07:30:59;101436.53;;;21.03;75.85
59650;BME280;46162;57.568;25.814;2023-06-14T07:33:28;101434.72;;;21.24;73.76
59650;BME280;46162;57.568;25.814;2023-06-14T07:35:56;101436.31;;;21.40;71.51
59650;BME280;46162;57.568;25.814;2023-06-14T07:38:27;101436.47;;;21.32;74.33
59650;BME280;46162;57.568;25.814;2023-06-14T07:40:55;101430.28;;;21.64;65.04
59650;BME280;46162;57.568;25.814;2023-06-14T07:43:24;101430.50;;;21.69;74.11
59650;BME280;46162;57.568;25.814;2023-06-14T07:46:29;101433.63;;;21.53;58.57
59650;BME280;46162;57.568;25.814;2023-06-14T07:48:58;101432.22;;;21.84;63.51
59650;BME280;46162;57.568;25.814;2023-06-14T07:51:27;101424.84;;;22.04;65.53
59650;BME280;46162;57.568;25.814;2023-06-14T07:53:59;101424.41;;;21.94;60.89
59650;BME280;46162;57.568;25.814;2023-06-14T07:56:29;101423.81;;;22.19;65.84
59650;BME280;46162;57.568;25.814;2023-06-14T07:58:58;101436.09;;;22.56;62.18
59650;BME280;46162;57.568;25.814;2023-06-14T08:01:26;101423.78;;;22.79;56.92
59650;BME280;46162;57.568;25.814;2023-06-14T08:03:55;101428.66;;;22.90;59.67
59650;BME280;46162;57.568;25.814;2023-06-14T08:06:24;101420.41;;;22.83;59.71
59650;BME280;46162;57.568;25.814;2023-06-14T08:08:53;101427.78;;;23.03;60.28
59650;BME280;46162;57.568;25.814;2023-06-14T08:11:23;101424.16;;;23.09;61.51
59650;BME280;46162;57.568;25.814;2023-06-14T08:13:52;101430.31;;;23.04;55.08
59650;BME280;46162;57.568;25.814;2023-06-14T08:16:21;101420.19;;;22.98;66.17
59650;BME280;46162;57.568;25.814;2023-06-14T08:18:49;101421.88;;;22.79;60.92
59650;BME280;46162;57.568;25.814;2023-06-14T08:21:18;101424.59;;;23.06;59.84
59650;BME280;46162;57.568;25.814;2023-06-14T08:23:47;101419.28;;;23.17;56.13
59650;BME280;46162;57.568;25.814;2023-06-14T08:26:16;101409.19;;;23.43;59.33
59650;BME280;46162;57.568;25.814;2023-06-14T08:28:46;101410.81;;;23.57;56.21
59650;BME280;46162;57.568;25.814;2023-06-14T08:31:14;101411.75;;;23.45;58.07
59650;BME280;46162;57.568;25.814;2023-06-14T08:33:43;101407.63;;;23.54;55.19
59650;BME280;46162;57.568;25.814;2023-06-14T08:36:13;101405.22;;;23.77;53.13
59650;BME280;46162;57.568;25.814;2023-06-14T08:38:41;101413.88;;;23.81;52.54
59650;BME280;46162;57.568;25.814;2023-06-14T08:41:11;101411.38;;;23.66;49.55
59650;BME280;46162;57.568;25.814;2023-06-14T08:43:41;101418.91;;;23.01;54.94
59650;BME280;46162;57.568;25.814;2023-06-14T08:46:12;101409.72;;;23.20;54.84
59650;BME280;46162;57.568;25.814;2023-06-14T08:48:43;101408.66;;;23.21;52.49
59650;BME280;46162;57.568;25.814;2023-06-14T08:51:13;101393.94;;;23.40;55.96
59650;BME280;46162;57.568;25.814;2023-06-14T08:53:43;101393.06;;;23.47;51.69
59650;BME280;46162;57.568;25.814;2023-06-14T08:56:12;101392.50;;;23.70;51.97
59650;BME280;46162;57.568;25.814;2023-06-14T08:58:43;101388.69;;;24.02;54.92
59650;BME280;46162;57.568;25.814;2023-06-14T09:01:14;101389.19;;;23.93;53.18
59650;BME280;46162;57.568;25.814;2023-06-14T09:03:45;101383.13;;;24.09;51.84
59650;BME280;46162;57.568;25.814;2023-06-14T09:06:15;101378.56;;;24.21;56.32
59650;BME280;46162;57.568;25.814;2023-06-14T09:08:46;101373.59;;;24.30;50.56
59650;BME280;46162;57.568;25.814;2023-06-14T09:11:17;101375.69;;;24.35;50.95
59650;BME280;46162;57.568;25.814;2023-06-14T09:13:46;101372.59;;;24.50;51.99
59650;BME280;46162;57.568;25.814;2023-06-14T09:16:16;101379.06;;;24.62;51.05
59650;BME280;46162;57.568;25.814;2023-06-14T09:18:46;101379.16;;;24.74;47.92
59650;BME280;46162;57.568;25.814;2023-06-14T09:21:16;101377.97;;;25.00;51.23
59650;BME280;46162;57.568;25.814;2023-06-14T09:23:46;101379.09;;;24.80;49.29
59650;BME280;46162;57.568;25.814;2023-06-14T09:26:16;101371.53;;;24.87;50.72
59650;BME280;46162;57.568;25.814;2023-06-14T09:28:48;101365.47;;;24.97;47.21
59650;BME280;46162;57.568;25.814;2023-06-14T09:31:19;101364.59;;;24.41;48.57
59650;BME280;46162;57.568;25.814;2023-06-14T09:33:49;101368.09;;;24.92;50.63
59650;BME280;46162;57.568;25.814;2023-06-14T09:36:20;101363.88;;;25.08;48.71
59650;BME280;46162;57.568;25.814;2023-06-14T09:38:53;101356.56;;;25.14;48.40
59650;BME280;46162;57.568;25.814;2023-06-14T09:41:30;101357.00;;;25.47;52.96
59650;BME280;46162;57.568;25.814;2023-06-14T09:43:59;101361.78;;;25.40;50.41
59650;BME280;46162;57.568;25.814;2023-06-14T09:46:36;101357.00;;;25.47;49.37
59650;BME280;46162;57.568;25.814;2023-06-14T09:49:06;101355.31;;;25.46;45.89
59650;BME280;46162;57.568;25.814;2023-06-14T09:51:36;101358.88;;;25.35;46.70
59650;BME280;46162;57.568;25.814;2023-06-14T09:54:15;101358.09;;;25.09;47.01
59650;BME280;46162;57.568;25.814;2023-06-14T09:56:45;101361.03;;;24.96;47.35
59650;BME280;46162;57.568;25.814;2023-06-14T09:59:16;101350.59;;;24.80;46.92
59650;BME280;46162;57.568;25.814;2023-06-14T10:01:49;101348.84;;;24.67;46.81
59650;BME280;46162;57.568;25.814;2023-06-14T10:04:18;101352.97;;;24.58;48.18
59650;BME280;46162;57.568;25.814;2023-06-14T10:06:48;101343.41;;;24.79;49.83
59650;BME280;46162;57.568;25.814;2023-06-14T10:09:18;101348.59;;;24.87;49.52
59650;BME280;46162;57.568;25.814;2023-06-14T10:11:49;101350.22;;;25.13;51.43
59650;BME280;46162;57.568;25.814;2023-06-14T10:14:18;101351.66;;;24.97;47.40
59650;BME280;46162;57.568;25.814;2023-06-14T10:16:55;101347.22;;;24.59;46.74
59650;BME280;46162;57.568;25.814;2023-06-14T10:19:31;101351.22;;;25.00;46.17
59650;BME280;46162;57.568;25.814;2023-06-14T10:22:06;101348.75;;;25.29;47.02
59650;BME280;46162;57.568;25.814;2023-06-14T10:24:41;101340.63;;;25.46;48.16
59650;BME280;46162;57.568;25.814;2023-06-14T10:27:13;101337.31;;;25.56;46.90
59650;BME280;46162;57.568;25.814;2023-06-14T10:30:02;101337.84;;;25.76;48.84
59650;BME280;46162;57.568;25.814;2023-06-14T10:32:32;101323.63;;;25.61;42.45
59650;BME280;46162;57.568;25.814;2023-06-14T10:35:04;101326.84;;;25.88;45.54
59650;BME280;46162;57.568;25.814;2023-06-14T10:37:33;101325.09;;;25.75;43.42
59650;BME280;46162;57.568;25.814;2023-06-14T10:40:03;101335.34;;;25.44;41.99
59650;BME280;46162;57.568;25.814;2023-06-14T10:42:34;101325.09;;;25.33;44.43
59650;BME280;46162;57.568;25.814;2023-06-14T10:45:03;101334.53;;;25.07;46.88
59650;BME280;46162;57.568;25.814;2023-06-14T10:47:34;101330.19;;;24.99;47.48
59650;BME280;46162;57.568;25.814;2023-06-14T10:50:06;101326.66;;;24.92;50.40
59650;BME280;46162;57.568;25.814;2023-06-14T10:52:40;101325.31;;;24.83;46.07
59650;BME280;46162;57.568;25.814;2023-06-14T10:55:14;101320.59;;;25.02;48.83
59650;BME280;46162;57.568;25.814;2023-06-14T10:57:45;101314.25;;;25.20;48.12
59650;BME280;46162;57.568;25.814;2023-06-14T11:00:19;101313.09;;;25.39;48.32
59650;BME280;46162;57.568;25.814;2023-06-14T11:03:36;101311.50;;;25.31;46.15
59650;BME280;46162;57.568;25.814;2023-06-14T11:06:14;101307.41;;;25.34;49.34
59650;BME280;46162;57.568;25.814;2023-06-14T11:11:42;101291.88;;;25.21;47.33
59650;BME280;46162;57.568;25.814;2023-06-14T11:14:11;101298.81;;;24.94;46.20
59650;BME280;46162;57.568;25.814;2023-06-14T11:16:39;101303.75;;;24.55;48.64
59650;BME280;46162;57.568;25.814;2023-06-14T11:19:10;101297.06;;;24.44;44.81
59650;BME280;46162;57.568;25.814;2023-06-14T11:21:40;101295.31;;;24.68;47.91
59650;BME280;46162;57.568;25.814;2023-06-14T11:24:10;101292.75;;;25.03;48.10
59650;BME280;46162;57.568;25.814;2023-06-14T11:26:40;101297.59;;;25.38;45.31
59650;BME280;46162;57.568;25.814;2023-06-14T11:29:09;101286.22;;;25.58;45.24
59650;BME280;46162;57.568;25.814;2023-06-14T11:31:43;101289.63;;;25.72;44.69
59650;BME280;46162;57.568;25.814;2023-06-14T11:34:14;101285.59;;;25.98;46.07
59650;BME280;46162;57.568;25.814;2023-06-14T11:36:43;101281.38;;;25.95;44.25
59650;BME280;46162;57.568;25.814;2023-06-14T11:39:13;101289.78;;;25.89;45.84
59650;BME280;46162;57.568;25.814;2023-06-14T11:41:43;101280.16;;;25.07;46.29
59650;BME280;46162;57.568;25.814;2023-06-14T11:44:12;101281.75;;;25.15;46.45
59650;BME280;46162;57.568;25.814;2023-06-14T11:46:41;101280.00;;;25.02;41.47
59650;BME280;46162;57.568;25.814;2023-06-14T11:49:09;101282.03;;;24.95;44.51
59650;BME280;46162;57.568;25.814;2023-06-14T11:51:42;101269.06;;;24.77;45.94
59650;BME280;46162;57.568;25.814;2023-06-14T11:54:11;101266.47;;;25.13;44.41
59650;BME280;46162;57.568;25.814;2023-06-14T11:56:41;101270.91;;;25.14;47.13
59650;BME280;46162;57.568;25.814;2023-06-14T11:59:10;101271.09;;;25.19;45.38
59650;BME280;46162;57.568;25.814;2023-06-14T12:01:43;101270.34;;;25.53;46.82
59650;BME280;46162;57.568;25.814;2023-06-14T12:04:12;101268.84;;;25.27;44.06
59650;BME280;46162;57.568;25.814;2023-06-14T12:06:42;101265.63;;;25.12;44.90
59650;BME280;46162;57.568;25.814;2023-06-14T12:09:11;101268.72;;;25.22;46.38
59650;BME280;46162;57.568;25.814;2023-06-14T12:11:44;101264.25;;;25.21;46.71
59650;BME280;46162;57.568;25.814;2023-06-14T12:14:13;101266.31;;;25.26;46.15
59650;BME280;46162;57.568;25.814;2023-06-14T12:16:41;101254.16;;;25.27;46.58
59650;BME280;46162;57.568;25.814;2023-06-14T12:19:14;101250.09;;;25.29;45.05
59650;BME280;46162;57.568;25.814;2023-06-14T12:21:46;101252.16;;;25.34;46.20
59650;BME280;46162;57.568;25.814;2023-06-14T12:24:16;101257.19;;;25.25;45.68
59650;BME280;46162;57.568;25.814;2023-06-14T12:26:45;101249.25;;;25.29;44.48
59650;BME280;46162;57.568;25.814;2023-06-14T12:29:14;101252.41;;;25.14;47.63
59650;BME280;46162;57.568;25.814;2023-06-14T12:31:43;101249.25;;;25.29;49.28
59650;BME280;46162;57.568;25.814;2023-06-14T12:34:11;101251.44;;;25.39;47.54
59650;BME280;46162;57.568;25.814;2023-06-14T12:36:40;101262.44;;;25.27;48.26
59650;BME280;46162;57.568;25.814;2023-06-14T12:39:10;101255.63;;;25.29;46.09
59650;BME280;46162;57.568;25.814;2023-06-14T12:41:39;101245.59;;;25.17;46.90
59650;BME280;46162;57.568;25.814;2023-06-14T12:44:10;101239.31;;;25.09;47.84
59650;BME280;46162;57.568;25.814;2023-06-14T12:46:39;101243.22;;;24.72;50.56
59650;BME280;46162;57.568;25.814;2023-06-14T12:49:09;101232.50;;;24.63;47.22
59650;BME280;46162;57.568;25.814;2023-06-14T12:51:39;101231.72;;;24.75;46.03
59650;BME280;46162;57.568;25.814;2023-06-14T12:54:08;101233.38;;;24.94;47.25
59650;BME280;46162;57.568;25.814;2023-06-14T12:56:38;101234.75;;;24.85;50.66
59650;BME280;46162;57.568;25.814;2023-06-14T12:59:08;101223.88;;;24.90;50.14